Latest Weather Observations for Woolshed

IDQ60801

Issued at 10:02 am EST Wednesday 2 September 2015 (issued every 30 minutes, with the page automatically refreshed every 10 minutes)

About weather observations | Map of weather stations | Latest weather observations for QLD | Other Formats
Station Details ID: 033307 Name: WOOLSHED Lat: -19.42 Lon: 146.54 Height: 556.04 m
Data from the previous 72 hours. | See also: Recent months at Woolshed
Date/Time
EST
Temp
°C
App
Temp
°C
Dew
Point
Rel
Hum
%
Delta-T
°C
Wind Press
QNH
hPa
Press
MSL
hPa
Rain
since 9 am
mm
Dir
 
Spd
km/h
Gust
km/h
Spd
kts
Gust
kts
02/10:00am 22.5 23.0 17.4 73 3.2 N 11 22 6 12 1021.7 1019.3 0.0
02/09:30am 21.6 22.3 18.0 80 2.3 N 11 20 6 11 1021.6 1019.2 0.0
02/09:00am 21.1 22.2 18.9 87 1.4 N 11 19 6 10 1021.6 1019.2 0.0
02/08:30am 20.4 22.4 19.9 97 0.3 NNE 9 17 5 9 1021.2 1018.8 0.0
02/08:00am 19.2 20.8 19.2 100 0.0 NNE 9 17 5 9 1020.8 1018.3 0.0
02/07:30am 18.9 20.0 18.9 100 0.0 N 11 20 6 11 1020.4 1017.9 0.0
02/07:00am 18.9 20.0 18.9 100 0.0 N 11 22 6 12 1019.9 1017.5 0.0
02/06:30am 18.8 19.9 18.8 100 0.0 N 11 20 6 11 1019.4 1016.9 0.0
02/06:00am 18.8 19.9 18.8 100 0.0 N 11 24 6 13 1019.1 1016.6 0.0
02/05:30am 18.8 19.9 18.8 100 0.0 NNE 11 20 6 11 1018.6 1016.1 0.0
02/05:00am 18.9 20.0 18.9 100 0.0 NNE 11 20 6 11 1018.2 1015.7 0.0
02/04:30am 18.9 20.4 18.9 100 0.0 NNE 9 20 5 11 1017.9 1015.5 0.0
02/04:00am 18.8 20.3 18.8 100 0.0 NNE 9 15 5 8 1017.9 1015.5 0.0
02/03:30am 18.8 20.3 18.8 100 0.0 NNE 9 22 5 12 1017.9 1015.5 0.0
02/03:00am 18.8 19.9 18.8 100 0.0 NNE 11 22 6 12 1018.0 1015.6 0.0
02/02:30am 18.8 20.6 18.8 100 0.0 NNE 7 19 4 10 1018.0 1015.6 0.0
02/02:00am 18.8 19.9 18.8 100 0.0 NNE 11 26 6 14 1017.9 1015.5 0.0
02/01:30am 18.8 19.1 18.8 100 0.0 NNE 15 30 8 16 1017.9 1015.5 0.0
02/01:00am 18.8 18.7 18.8 100 0.0 NNE 17 30 9 16 1017.9 1015.5 0.0
02/12:30am 18.8 18.7 18.8 100 0.0 NNE 17 28 9 15 1017.8 1015.3 0.0
02/12:00am 18.8 18.7 18.8 100 0.0 NNE 17 32 9 17 1017.8 1015.3 0.0
 
Date/Time
EST
Temp
°C
App
Temp
°C
Dew
Point
Rel
Hum
%
Delta-T
°C
Wind Press
QNH
hPa
Press
MSL
hPa
Rain
since 9 am
mm
Dir
 
Spd
km/h
Gust
km/h
Spd
kts
Gust
kts
01/11:30pm 18.9 18.9 18.9 100 0.0 NNE 17 26 9 14 1017.8 1015.3 0.0
01/11:00pm 18.9 18.5 18.9 100 0.0 NNE 19 35 10 19 1017.7 1015.2 0.0
01/10:30pm 19.0 19.0 19.0 100 0.0 NNE 17 30 9 16 1017.7 1015.2 0.0
01/10:00pm 19.1 19.5 19.1 100 0.0 NNE 15 28 8 15 1017.6 1015.1 0.0
01/09:30pm 19.1 19.5 19.1 100 0.0 NNE 15 26 8 14 1017.6 1015.1 0.0
01/09:00pm 19.1 19.8 18.9 99 0.1 NNE 13 20 7 11 1017.5 1015.0 0.0
01/08:30pm 19.1 19.8 18.9 99 0.1 NNE 13 26 7 14 1017.2 1014.7 0.0
01/08:00pm 19.1 19.8 18.9 99 0.1 NNE 13 22 7 12 1016.9 1014.4 0.0
01/07:30pm 19.3 20.1 19.1 99 0.1 NNE 13 26 7 14 1016.7 1014.2 0.0
01/07:00pm 19.5 20.0 19.2 98 0.2 NNE 15 26 8 14 1016.4 1013.9 0.0
01/06:30pm 19.6 19.8 18.6 94 0.6 NNE 15 28 8 15 1016.0 1013.5 0.0
01/06:00pm 20.2 20.9 18.0 87 1.4 NNE 11 22 6 12 1015.8 1013.3 0.0
01/05:30pm 21.0 21.6 17.6 81 2.1 NNE 11 20 6 11 1015.7 1013.2 0.0
01/05:00pm 21.8 21.9 17.4 76 2.8 NNE 13 22 7 12 1015.5 1013.0 0.0
01/04:30pm 22.6 22.5 16.9 70 3.6 NNE 13 26 7 14 1015.3 1012.8 0.0
01/04:00pm 23.8 23.9 17.5 68 4.0 N 13 24 7 13 1015.2 1012.7 0.0
01/03:30pm 23.6 23.1 16.9 66 4.2 NNE 15 28 8 15 1015.4 1012.9 0.0
01/03:00pm 23.4 23.3 16.9 67 4.1 NNE 13 24 7 13 1015.6 1013.1 0.0
01/02:30pm 25.0 24.7 18.2 66 4.4 NNE 17 28 9 15 1015.9 1013.4 0.0
01/02:00pm 22.9 22.2 16.4 67 4.0 NNE 15 24 8 13 1016.5 1014.0 0.0
01/01:30pm 23.5 23.2 16.5 65 4.4 NNE 13 22 7 12 1016.9 1014.4 0.0
01/01:00pm 24.0 24.3 17.0 65 4.4 NE 11 20 6 11 1017.3 1014.8 0.0
01/12:30pm 24.9 24.5 16.3 59 5.4 N 13 24 7 13 1017.6 1015.1 0.0
01/12:00pm 25.1 25.6 16.5 59 5.4 NNE 9 17 5 9 1018.3 1015.8 0.0
01/11:30am 23.7 24.2 17.4 68 4.0 NE 11 20 6 11 1018.8 1016.3 0.0
01/11:00am 23.6 24.2 16.9 66 4.2 N 9 22 5 12 1019.4 1016.9 0.0
01/10:30am 24.6 25.7 18.1 67 4.2 NNE 9 20 5 11 1019.6 1017.2 0.0
01/10:00am 22.9 23.7 17.4 71 3.5 NNE 9 19 5 10 1020.1 1017.6 0.0
01/09:30am 22.4 23.8 17.8 75 2.9 NE 7 17 4 9 1019.9 1018.2 0.0
01/09:00am 21.2 22.0 17.4 79 2.4 NNE 9 20 5 11 1019.8 1018.0 0.0
01/08:30am 20.4 21.7 17.0 81 2.1 NNE 6 9 3 5 1019.5 1017.7 0.0
01/08:00am 20.1 22.2 18.2 89 1.2 N 4 7 2 4 1019.3 1017.5 0.0
01/07:30am 19.0 21.3 18.5 97 0.3 N 4 9 2 5 1018.9 1017.1 0.0
01/07:00am 18.5 20.3 18.3 99 0.1 NNE 6 9 3 5 1018.5 1016.7 0.0
01/06:30am 18.7 20.5 18.4 98 0.2 ENE 6 11 3 6 1018.2 1016.3 0.0
01/06:00am 18.6 20.8 18.4 99 0.1 NE 4 7 2 4 1017.8 1016.0 0.0
01/05:30am 18.7 20.6 18.5 99 0.1 NE 6 11 3 6 1017.5 1015.7 0.0
01/05:00am 18.6 20.8 18.4 99 0.1 ENE 4 7 2 4 1017.3 1015.5 0.0
01/04:30am 18.6 20.4 18.4 99 0.1 NE 6 9 3 5 1017.1 1015.3 0.0
01/04:00am 18.6 21.2 18.3 98 0.2 NE 2 6 1 3 1017.2 1015.4 0.0
01/03:30am 18.7 20.9 18.4 98 0.2 NE 4 9 2 5 1017.3 1015.5 0.0
01/03:00am 18.6 20.3 18.4 99 0.1 ENE 7 13 4 7 1017.3 1015.5 0.0
01/02:30am 18.7 20.0 18.5 99 0.1 NE 9 17 5 9 1017.3 1015.5 0.0
01/02:00am 18.6 20.3 18.4 99 0.1 NE 7 15 4 8 1017.3 1015.5 0.0
01/01:30am 18.7 20.4 18.5 99 0.1 NNE 7 15 4 8 1017.4 1015.6 0.0
01/01:00am 18.7 20.6 18.5 99 0.1 NNE 6 9 3 5 1017.7 1015.9 0.0
01/12:30am 18.6 19.9 18.4 99 0.1 NNE 9 15 5 8 1017.8 1016.0 0.0
01/12:00am 18.8 20.5 18.6 99 0.1 NNE 7 11 4 6 1018.0 1016.2 0.0
 
Date/Time
EST
Temp
°C
App
Temp
°C
Dew
Point
Rel
Hum
%
Delta-T
°C
Wind Press
QNH
hPa
Press
MSL
hPa
Rain
since 9 am
mm
Dir
 
Spd
km/h
Gust
km/h
Spd
kts
Gust
kts
31/11:30pm 18.9 20.3 18.7 99 0.1 NE 9 17 5 9 1018.2 1016.3 0.0
31/11:00pm 18.6 19.9 18.4 99 0.1 NNE 9 17 5 9 1017.9 1016.1 0.0
31/10:30pm 18.7 20.0 18.5 99 0.1 NNE 9 20 5 11 1017.8 1016.0 0.0
31/10:00pm 18.7 19.3 18.5 99 0.1 NNE 13 24 7 13 1017.8 1016.0 0.0
31/09:30pm 18.7 20.0 18.5 99 0.1 NNE 9 20 5 11 1017.7 1015.9 0.0
31/09:00pm 18.6 19.5 18.4 99 0.1 NNE 11 17 6 9 1017.5 1015.7 0.0
31/08:30pm 18.9 20.6 18.6 98 0.2 NNE 7 19 4 10 1017.5 1015.7 0.0
31/08:00pm 18.9 20.6 18.6 98 0.2 NNE 7 15 4 8 1017.4 1015.6 0.0
31/07:30pm 19.0 20.7 18.5 97 0.3 NNE 7 13 4 7 1017.1 1015.3 0.0
31/07:00pm 19.1 20.3 18.3 95 0.5 NNE 9 19 5 10 1016.6 1014.7 0.0
31/06:30pm 19.4 20.4 17.7 90 1.1 N 9 15 5 8 1016.1 1014.3 0.0
31/06:00pm 20.0 20.8 17.4 85 1.6 NNE 9 15 5 8 1016.0 1014.2 0.0
31/05:30pm 21.2 22.1 17.6 80 2.3 NNE 9 17 5 9 1015.9 1014.1 0.0
31/05:00pm 21.6 22.2 17.6 78 2.5 NNE 11 20 6 11 1015.6 1013.8 0.0
31/04:30pm 23.1 23.7 17.6 71 3.5 N 11 19 6 10 1015.3 1013.5 0.0
31/04:00pm 22.9 22.6 17.4 71 3.5 NNE 15 22 8 12 1015.3 1013.5 0.0
31/03:30pm 23.6 23.6 17.1 67 4.1 NNE 13 22 7 12 1015.2 1013.4 0.0
31/03:00pm 22.9 23.0 16.4 67 4.0 NNE 11 20 6 11 1015.6 1013.8 0.0
31/02:30pm 24.7 25.1 17.2 63 4.8 NNE 11 24 6 13 1015.9 1014.1 0.0
31/02:00pm 25.0 25.2 16.7 60 5.2 NNE 11 19 6 10 1016.4 1014.5 0.0
31/01:30pm 24.4 23.8 15.6 58 5.4 NNE 13 22 7 12 1016.7 1014.8 0.0
31/01:00pm 25.2 24.7 15.8 56 5.8 NNE 13 22 7 12 1017.1 1015.3 0.0
31/12:30pm 24.4 24.3 15.9 59 5.3 NNE 11 20 6 11 1017.4 1015.6 0.0
31/12:00pm 25.2 25.2 15.2 54 6.2 NNE 9 17 5 9 1017.8 1016.0 0.0
31/11:30am 25.9 26.3 16.2 55 6.1 NNE 9 15 5 8 1018.3 1016.4 0.0
31/11:00am 23.8 24.2 15.3 59 5.2 NE 7 19 4 10 1018.8 1017.0 0.0
31/10:30am 23.1 23.5 15.2 61 4.8 N 7 13 4 7 1019.3 1017.5 0.0
31/10:00am 22.9 24.0 16.7 68 3.9 ENE 6 13 3 7 1019.5 1017.7 0.0
31/09:30am 20.8 23.2 18.0 84 1.8 ESE 2 4 1 2 1019.5 1017.7 0.0
31/09:00am 18.4 20.9 18.2 99 0.1 SW 2 4 1 2 1019.4 1017.6 0.0
31/08:30am 17.6 20.2 17.4 99 0.1 CALM 0 0 0 0 1019.3 1017.5 0.0
31/08:00am 17.1 19.5 16.9 99 0.1 CALM 0 0 0 0 1019.0 1017.2 0.0
31/07:30am 16.6 18.8 16.4 99 0.1 CALM 0 0 0 0 1018.6 1016.8 0.0
31/07:00am 15.7 17.5 15.5 99 0.1 CALM 0 0 0 0 1018.4 1016.6 0.0
31/06:30am 14.9 16.4 14.7 99 0.1 CALM 0 0 0 0 1018.0 1016.2 0.0
31/06:00am 14.8 16.3 14.6 99 0.1 CALM 0 0 0 0 1017.7 1015.9 0.0
31/05:30am 14.9 16.4 14.7 99 0.1 CALM 0 0 0 0 1017.4 1015.6 0.0
31/05:00am 15.2 16.8 15.0 99 0.1 CALM 0 0 0 0 1017.3 1015.5 0.0
31/04:30am 15.8 17.6 15.6 99 0.1 CALM 0 0 0 0 1017.2 1015.4 0.0
31/04:00am 15.9 17.7 15.6 98 0.2 CALM 0 2 0 1 1017.4 1015.6 0.0
31/03:30am 16.9 19.2 16.7 99 0.1 CALM 0 0 0 0 1017.5 1015.7 0.0
31/03:00am 16.3 18.2 15.8 97 0.3 CALM 0 0 0 0 1017.6 1015.8 0.0
31/02:30am 17.0 19.2 16.5 97 0.3 CALM 0 0 0 0 1017.7 1015.9 0.0
31/02:00am 17.6 20.0 17.1 97 0.3 CALM 0 0 0 0 1018.0 1016.2 0.0
31/01:30am 18.2 20.9 17.7 97 0.3 CALM 0 4 0 2 1018.3 1016.4 0.0
31/01:00am 18.4 21.3 18.1 98 0.2 CALM 0 4 0 2 1018.3 1016.4 0.0
31/12:30am 18.4 20.5 18.1 98 0.2 NE 4 7 2 4 1018.4 1016.6 0.0
31/12:00am 18.4 20.9 18.2 99 0.1 NNE 2 6 1 3 1018.4 1016.6 0.0
 
Date/Time
EST
Temp
°C
App
Temp
°C
Dew
Point
Rel
Hum
%
Delta-T
°C
Wind Press
QNH
hPa
Press
MSL
hPa
Rain
since 9 am
mm
Dir
 
Spd
km/h
Gust
km/h
Spd
kts
Gust
kts
30/11:30pm 18.4 21.2 17.9 97 0.3 CALM 0 4 0 2 1018.5 1016.7 0.0
30/11:00pm 18.6 21.5 18.1 97 0.3 CALM 0 2 0 1 1018.6 1016.8 0.0
30/10:30pm 18.9 21.5 18.4 97 0.3 NNE 2 4 1 2 1018.6 1016.8 0.0
30/10:00pm 18.9 21.1 18.4 97 0.3 NNE 4 7 2 4 1018.6 1016.8 0.0
30/09:30pm 18.9 21.1 18.4 97 0.3 NE 4 7 2 4 1018.4 1016.6 0.0
30/09:00pm 19.0 21.8 18.8 99 0.1 NNE 2 6 1 3 1018.4 1016.6 0.0
30/08:30pm 19.0 21.0 18.7 98 0.2 N 6 13 3 7 1017.8 1016.0 0.0
30/08:00pm 19.0 21.3 18.5 97 0.3 NNE 4 7 2 4 1017.6 1015.8 0.0
30/07:30pm 19.2 21.5 18.5 96 0.4 NE 4 9 2 5 1017.4 1015.6 0.0
30/07:00pm 19.2 20.9 18.4 95 0.5 NNE 7 13 4 7 1016.9 1015.1 0.0
30/06:30pm 19.3 20.6 17.6 90 1.1 N 7 15 4 8 1016.5 1014.6 0.0
30/06:00pm 20.1 20.8 16.1 78 2.5 NNE 7 11 4 6 1016.0 1014.2 0.0
30/05:30pm 20.9 21.8 16.5 76 2.7 NNE 7 13 4 7 1015.9 1014.1 0.0
30/05:00pm 21.7 21.8 16.4 72 3.3 NNE 11 17 6 9 1015.8 1014.0 0.0
30/04:30pm 22.2 22.6 16.2 69 3.7 NNE 9 19 5 10 1015.7 1013.9 0.0
30/04:00pm 23.0 23.6 15.8 64 4.4 N 7 13 4 7 1015.6 1013.8 0.0
30/03:30pm 23.3 23.7 16.4 65 4.3 NNE 9 15 5 8 1015.8 1014.0 0.0
30/03:00pm 23.1 23.2 16.4 66 4.2 NE 11 24 6 13 1016.1 1014.3 0.0
30/02:30pm 23.9 23.9 16.2 62 4.8 NE 11 20 6 11 1016.5 1014.6 0.0
30/02:00pm 23.6 24.7 16.6 65 4.4 NNE 6 13 3 7 1017.0 1015.2 0.0
30/01:30pm 25.2 26.5 17.1 60 5.1 NNE 6 11 3 6 1017.3 1015.5 0.0
30/01:00pm 22.7 23.0 16.0 66 4.1 NE 9 17 5 9 1018.0 1016.2 0.0
30/12:30pm 25.9 26.5 16.7 57 5.8 NNE 9 17 5 9 1018.3 1016.4 0.0
30/12:00pm 24.2 25.3 15.7 59 5.3 NNW 4 9 2 5 1019.0 1017.2 0.0
30/11:30am 23.4 24.8 16.4 64 4.4 ENE 4 9 2 5 1019.5 1017.7 0.0
30/11:00am 21.7 23.1 16.4 72 3.3 E 4 9 2 5 1019.9 1018.2 0.0
30/10:30am 21.9 23.4 16.6 72 3.3 NNW 4 7 2 4 1020.4 1018.6 0.0

Other Formats:

Comma delimited format used in spreadsheet applications
http://www.bom.gov.au/fwo/IDQ60801/IDQ60801.95293.axf

JavaScript Object Notation format (JSON) in row-major order
http://www.bom.gov.au/fwo/IDQ60801/IDQ60801.95293.json